XLA9000 WAAA-WMKK
Flight info
| Callsign | XLA9000 |
|---|---|
| Flight time | 2h 49m |
| Altitude | 40000 |
| Route | KEVOK M774 JUNHA M635 VTK DCT VJB A457 GUPTA GUPTA1J |
| Aircraft | A343/H-SDE2E3FGHIJ4J5M1RWXY/LB1D1 |
Departure
| Time | 2026-05-01 08:48 |
|---|---|
| Airport | Sultan Hasanuddin International Airport (WAAA) |
Arrival
| Time | 2026-05-01 11:37 |
|---|---|
| Airport | Kuala Lumpur International Airport (WMKK) |
| Time | Latitude | Longitude | Altitude | Speed | Heading |
|---|---|---|---|---|---|
| 2026-05-01 07:59 | -5.07942 | 119.54645 | 45 ft | 0 kts | 300° |
| 2026-05-01 08:33 | -5.07948 | 119.54656 | 44 ft | 4 kts | 300° |
| 2026-05-01 08:33 | -5.07962 | 119.54679 | 43 ft | 4 kts | 300° |
| 2026-05-01 08:33 | -5.07974 | 119.54700 | 42 ft | 4 kts | 312° |
| 2026-05-01 08:34 | -5.07993 | 119.54710 | 41 ft | 4 kts | 17° |
| 2026-05-01 08:34 | -5.08015 | 119.54698 | 42 ft | 2 kts | 31° |
| 2026-05-01 08:34 | -5.08021 | 119.54695 | 42 ft | 0 kts | 30° |
| 2026-05-01 08:37 | -5.08020 | 119.54696 | 42 ft | 0 kts | 30° |
| 2026-05-01 08:37 | -5.08017 | 119.54697 | 42 ft | 1 kts | 30° |
| 2026-05-01 08:37 | -5.08013 | 119.54700 | 42 ft | 1 kts | 30° |
| 2026-05-01 08:37 | -5.08012 | 119.54700 | 42 ft | 0 kts | 30° |
| 2026-05-01 08:39 | -5.08011 | 119.54701 | 45 ft | 0 kts | 30° |
| 2026-05-01 08:40 | -5.07997 | 119.54709 | 43 ft | 2 kts | 30° |
| 2026-05-01 08:40 | -5.07984 | 119.54717 | 45 ft | 3 kts | 30° |
| 2026-05-01 08:40 | -5.07966 | 119.54728 | 45 ft | 3 kts | 30° |
| 2026-05-01 08:41 | -5.07943 | 119.54741 | 45 ft | 4 kts | 30° |
| 2026-05-01 08:41 | -5.07916 | 119.54757 | 45 ft | 5 kts | 30° |
| 2026-05-01 08:41 | -5.07884 | 119.54776 | 45 ft | 6 kts | 30° |
| 2026-05-01 08:41 | -5.07849 | 119.54796 | 45 ft | 6 kts | 30° |
| 2026-05-01 08:42 | -5.07808 | 119.54820 | 45 ft | 7 kts | 30° |
| 2026-05-01 08:42 | -5.07764 | 119.54846 | 45 ft | 8 kts | 30° |
| 2026-05-01 08:42 | -5.07716 | 119.54875 | 45 ft | 8 kts | 30° |
| 2026-05-01 08:42 | -5.07664 | 119.54905 | 45 ft | 9 kts | 30° |
| 2026-05-01 08:43 | -5.07609 | 119.54938 | 45 ft | 10 kts | 32° |
| 2026-05-01 08:43 | -5.07584 | 119.54990 | 45 ft | 8 kts | 85° |
| 2026-05-01 08:43 | -5.07600 | 119.55044 | 45 ft | 8 kts | 117° |
| 2026-05-01 08:43 | -5.07623 | 119.55098 | 45 ft | 8 kts | 92° |
| 2026-05-01 08:44 | -5.07600 | 119.55135 | 45 ft | 6 kts | 44° |
| 2026-05-01 08:44 | -5.07525 | 119.55184 | 45 ft | 27 kts | 30° |
| 2026-05-01 08:44 | -5.07334 | 119.55290 | 45 ft | 31 kts | 28° |
| 2026-05-01 08:44 | -5.07150 | 119.55401 | 45 ft | 30 kts | 31° |
| 2026-05-01 08:45 | -5.07030 | 119.55471 | 45 ft | 30 kts | 29° |
| 2026-05-01 08:45 | -5.06854 | 119.55569 | 45 ft | 29 kts | 30° |
| 2026-05-01 08:45 | -5.06688 | 119.55665 | 45 ft | 19 kts | 33° |
| 2026-05-01 08:45 | -5.06678 | 119.55674 | 45 ft | 1 kts | 47° |
| 2026-05-01 08:46 | -5.06662 | 119.55715 | 45 ft | 8 kts | 85° |
| 2026-05-01 08:46 | -5.06682 | 119.55758 | 45 ft | 7 kts | 127° |
| 2026-05-01 08:46 | -5.06783 | 119.55812 | 45 ft | 20 kts | 186° |
| 2026-05-01 08:46 | -5.06892 | 119.55752 | 45 ft | 18 kts | 211° |
| 2026-05-01 08:47 | -5.07115 | 119.55622 | 43 ft | 68 kts | 210° |
| 2026-05-01 08:47 | -5.07708 | 119.55281 | 46 ft | 125 kts | 210° |
| 2026-05-01 08:47 | -5.08605 | 119.54765 | 46 ft | 170 kts | 210° |
| 2026-05-01 08:47 | -5.09689 | 119.54138 | 448 ft | 179 kts | 209° |
| 2026-05-01 08:48 | -5.10718 | 119.53584 | 1233 ft | 172 kts | 206° |
| 2026-05-01 08:48 | -5.11855 | 119.53043 | 1656 ft | 190 kts | 201° |
| 2026-05-01 08:48 | -5.13162 | 119.52628 | 2112 ft | 205 kts | 198° |
| 2026-05-01 08:48 | -5.14580 | 119.52165 | 2624 ft | 225 kts | 199° |
| 2026-05-01 08:49 | -5.16025 | 119.51372 | 3068 ft | 249 kts | 227° |
| 2026-05-01 08:49 | -5.16777 | 119.49807 | 3871 ft | 257 kts | 263° |
| 2026-05-01 08:49 | -5.16479 | 119.48036 | 4734 ft | 265 kts | 298° |
| 2026-05-01 08:49 | -5.15207 | 119.46696 | 5513 ft | 271 kts | 332° |
| 2026-05-01 08:50 | -5.13409 | 119.46281 | 6345 ft | 274 kts | 6° |
| 2026-05-01 08:50 | -5.11622 | 119.46935 | 7178 ft | 275 kts | 37° |
| 2026-05-01 08:50 | -5.10135 | 119.48122 | 8000 ft | 279 kts | 39° |
| 2026-05-01 08:50 | -5.08542 | 119.49272 | 8865 ft | 284 kts | 34° |
| 2026-05-01 08:51 | -5.06851 | 119.50303 | 9720 ft | 290 kts | 31° |
| 2026-05-01 08:51 | -5.05069 | 119.51281 | 10414 ft | 299 kts | 29° |
| 2026-05-01 08:51 | -5.03160 | 119.52268 | 10815 ft | 319 kts | 28° |
| 2026-05-01 08:51 | -5.01111 | 119.53287 | 11206 ft | 337 kts | 27° |
| 2026-05-01 08:52 | -4.98850 | 119.54061 | 11670 ft | 351 kts | 11° |
| 2026-05-01 08:52 | -4.96382 | 119.54238 | 12281 ft | 359 kts | 1° |
| 2026-05-01 08:52 | -4.93866 | 119.54246 | 12930 ft | 365 kts | 0° |
| 2026-05-01 08:52 | -4.91304 | 119.54236 | 13623 ft | 369 kts | 0° |
| 2026-05-01 08:53 | -4.88753 | 119.54226 | 14224 ft | 373 kts | 0° |
| 2026-05-01 08:53 | -4.86137 | 119.54211 | 14836 ft | 377 kts | 0° |
| 2026-05-01 08:53 | -4.83508 | 119.54193 | 15470 ft | 381 kts | 0° |
| 2026-05-01 08:53 | -4.80837 | 119.54172 | 16121 ft | 384 kts | 0° |
| 2026-05-01 08:54 | -4.78159 | 119.54147 | 16772 ft | 387 kts | 0° |
| 2026-05-01 08:54 | -4.75452 | 119.54120 | 17433 ft | 390 kts | 0° |
| 2026-05-01 08:54 | -4.72727 | 119.54090 | 18075 ft | 394 kts | 0° |
| 2026-05-01 08:54 | -4.69972 | 119.54056 | 18617 ft | 398 kts | 0° |
| 2026-05-01 08:55 | -4.67189 | 119.54020 | 19159 ft | 402 kts | 0° |
| 2026-05-01 08:55 | -4.64377 | 119.53980 | 19712 ft | 405 kts | 0° |
| 2026-05-01 08:55 | -4.61556 | 119.53935 | 20225 ft | 408 kts | 0° |
| 2026-05-01 08:55 | -4.58689 | 119.53883 | 20774 ft | 412 kts | 0° |
| 2026-05-01 08:56 | -4.55821 | 119.53827 | 21305 ft | 415 kts | 0° |
| 2026-05-01 08:56 | -4.52916 | 119.53764 | 21824 ft | 418 kts | 0° |
| 2026-05-01 08:56 | -4.49995 | 119.53698 | 22321 ft | 422 kts | 0° |
| 2026-05-01 08:56 | -4.47045 | 119.53627 | 22820 ft | 425 kts | 0° |
| 2026-05-01 08:57 | -4.44082 | 119.53554 | 23302 ft | 428 kts | 0° |
| 2026-05-01 08:57 | -4.41087 | 119.53478 | 23747 ft | 431 kts | 0° |
| 2026-05-01 08:57 | -4.38079 | 119.53402 | 24142 ft | 434 kts | 0° |
| 2026-05-01 08:57 | -4.35046 | 119.53326 | 24529 ft | 437 kts | 0° |
| 2026-05-01 08:58 | -4.32028 | 119.53251 | 24931 ft | 440 kts | 0° |
| 2026-05-01 08:58 | -4.28919 | 119.53174 | 25353 ft | 443 kts | 0° |
| 2026-05-01 08:58 | -4.25873 | 119.53097 | 25741 ft | 446 kts | 0° |
| 2026-05-01 08:58 | -4.22750 | 119.53018 | 26137 ft | 449 kts | 0° |
| 2026-05-01 08:59 | -4.19630 | 119.52938 | 26551 ft | 451 kts | 0° |
| 2026-05-01 08:59 | -4.16483 | 119.52852 | 26925 ft | 454 kts | 359° |
| 2026-05-01 08:59 | -4.13328 | 119.52406 | 27308 ft | 460 kts | 345° |
| 2026-05-01 08:59 | -4.10393 | 119.51116 | 27686 ft | 466 kts | 329° |
| 2026-05-01 09:00 | -4.07884 | 119.49030 | 28043 ft | 472 kts | 313° |
| 2026-05-01 09:00 | -4.06032 | 119.46319 | 28380 ft | 476 kts | 296° |
| 2026-05-01 09:00 | -4.04969 | 119.43164 | 28734 ft | 479 kts | 280° |
| 2026-05-01 09:00 | -4.04651 | 119.39842 | 29086 ft | 482 kts | 272° |
| 2026-05-01 09:01 | -4.04573 | 119.36471 | 29426 ft | 484 kts | 270° |
| 2026-05-01 09:01 | -4.04531 | 119.33087 | 29758 ft | 487 kts | 270° |
| 2026-05-01 09:01 | -4.04494 | 119.29692 | 30069 ft | 489 kts | 270° |
| 2026-05-01 09:01 | -4.04457 | 119.26274 | 30346 ft | 491 kts | 270° |
| 2026-05-01 09:02 | -4.04368 | 119.22838 | 30623 ft | 493 kts | 274° |
| 2026-05-01 09:02 | -4.03985 | 119.19427 | 30914 ft | 495 kts | 277° |
| 2026-05-01 09:02 | -4.03539 | 119.16003 | 31194 ft | 497 kts | 277° |
| 2026-05-01 09:02 | -4.03072 | 119.12566 | 31470 ft | 498 kts | 278° |
| 2026-05-01 09:03 | -4.02591 | 119.09126 | 31779 ft | 499 kts | 278° |
| 2026-05-01 09:03 | -4.02110 | 119.05737 | 32172 ft | 497 kts | 278° |
| 2026-05-01 09:03 | -4.01623 | 119.02315 | 32550 ft | 496 kts | 278° |
| 2026-05-01 09:03 | -4.01138 | 118.98905 | 32935 ft | 494 kts | 278° |
| 2026-05-01 09:04 | -4.00653 | 118.95498 | 33303 ft | 493 kts | 278° |
| 2026-05-01 09:04 | -4.00171 | 118.92096 | 33554 ft | 495 kts | 278° |
| 2026-05-01 09:04 | -3.99687 | 118.88684 | 33812 ft | 496 kts | 278° |
| 2026-05-01 09:04 | -3.99202 | 118.85260 | 34120 ft | 495 kts | 278° |
| 2026-05-01 09:05 | -3.98720 | 118.81855 | 34447 ft | 493 kts | 278° |
| 2026-05-01 09:05 | -3.98239 | 118.78462 | 34756 ft | 491 kts | 278° |
| 2026-05-01 09:05 | -3.97760 | 118.75077 | 35070 ft | 490 kts | 278° |
| 2026-05-01 09:05 | -3.97283 | 118.71714 | 35372 ft | 488 kts | 278° |
| 2026-05-01 09:06 | -3.96804 | 118.68338 | 35666 ft | 487 kts | 278° |
| 2026-05-01 09:06 | -3.96328 | 118.64982 | 35960 ft | 485 kts | 278° |
| 2026-05-01 09:06 | -3.95853 | 118.61636 | 36270 ft | 484 kts | 278° |
| 2026-05-01 09:06 | -3.95381 | 118.58310 | 36541 ft | 483 kts | 278° |
| 2026-05-01 09:07 | -3.94909 | 118.54984 | 36804 ft | 482 kts | 278° |
| 2026-05-01 09:07 | -3.94436 | 118.51657 | 37076 ft | 481 kts | 278° |
| 2026-05-01 09:07 | -3.93965 | 118.48338 | 37338 ft | 480 kts | 278° |
| 2026-05-01 09:07 | -3.93495 | 118.45034 | 37594 ft | 479 kts | 278° |
| 2026-05-01 09:08 | -3.93026 | 118.41731 | 37856 ft | 479 kts | 278° |
| 2026-05-01 09:08 | -3.92562 | 118.38472 | 38090 ft | 478 kts | 278° |
| 2026-05-01 09:08 | -3.92089 | 118.35141 | 38316 ft | 477 kts | 278° |
| 2026-05-01 09:08 | -3.91620 | 118.31847 | 38518 ft | 477 kts | 278° |
| 2026-05-01 09:09 | -3.91151 | 118.28555 | 38705 ft | 477 kts | 278° |
| 2026-05-01 09:09 | -3.90683 | 118.25267 | 38892 ft | 476 kts | 278° |
| 2026-05-01 09:09 | -3.90222 | 118.22030 | 39065 ft | 476 kts | 278° |
| 2026-05-01 09:09 | -3.89755 | 118.18748 | 39239 ft | 476 kts | 278° |
| 2026-05-01 09:10 | -3.89289 | 118.15480 | 39417 ft | 475 kts | 278° |
| 2026-05-01 09:10 | -3.88821 | 118.12197 | 39585 ft | 475 kts | 278° |
| 2026-05-01 09:10 | -3.88355 | 118.08925 | 39758 ft | 474 kts | 278° |
| 2026-05-01 09:10 | -3.87889 | 118.05659 | 39845 ft | 476 kts | 278° |
| 2026-05-01 09:11 | -3.86948 | 117.99064 | 39861 ft | 479 kts | 278° |
| 2026-05-01 09:11 | -3.86008 | 117.92478 | 39857 ft | 477 kts | 278° |
| 2026-05-01 09:12 | -3.85070 | 117.85909 | 39860 ft | 476 kts | 278° |
| 2026-05-01 09:12 | -3.84137 | 117.79380 | 39860 ft | 476 kts | 278° |
| 2026-05-01 09:13 | -3.83197 | 117.72810 | 39861 ft | 476 kts | 278° |
| 2026-05-01 09:13 | -3.82259 | 117.66249 | 39858 ft | 476 kts | 278° |
| 2026-05-01 09:14 | -3.81318 | 117.59676 | 39860 ft | 476 kts | 278° |
| 2026-05-01 09:14 | -3.80377 | 117.53106 | 39863 ft | 476 kts | 278° |
| 2026-05-01 09:15 | -3.79435 | 117.46535 | 39858 ft | 476 kts | 278° |
| 2026-05-01 09:15 | -3.78494 | 117.39970 | 39860 ft | 476 kts | 278° |
| 2026-05-01 09:16 | -3.77553 | 117.33409 | 39857 ft | 476 kts | 278° |
| 2026-05-01 09:17 | -3.76140 | 117.23566 | 39857 ft | 476 kts | 278° |
| 2026-05-01 09:17 | -3.74727 | 117.13735 | 39855 ft | 475 kts | 278° |
| 2026-05-01 09:18 | -3.73314 | 117.03909 | 39854 ft | 475 kts | 278° |
| 2026-05-01 09:19 | -3.71898 | 116.94070 | 39853 ft | 476 kts | 278° |
| 2026-05-01 09:20 | -3.70485 | 116.84258 | 39854 ft | 476 kts | 278° |
| 2026-05-01 09:21 | -3.68596 | 116.71150 | 39852 ft | 475 kts | 278° |
| 2026-05-01 09:21 | -3.67178 | 116.61327 | 39854 ft | 475 kts | 278° |
| 2026-05-01 09:22 | -3.65284 | 116.48209 | 39844 ft | 475 kts | 278° |
| 2026-05-01 09:23 | -3.63872 | 116.38442 | 39843 ft | 475 kts | 278° |
| 2026-05-01 09:24 | -3.62453 | 116.28636 | 39844 ft | 475 kts | 278° |
| 2026-05-01 09:25 | -3.60558 | 116.15548 | 39842 ft | 475 kts | 278° |
| 2026-05-01 09:26 | -3.59133 | 116.05716 | 39842 ft | 475 kts | 278° |
| 2026-05-01 09:26 | -3.57709 | 115.95895 | 39839 ft | 475 kts | 278° |
| 2026-05-01 09:27 | -3.56284 | 115.86080 | 39841 ft | 475 kts | 278° |
| 2026-05-01 09:28 | -3.55334 | 115.79541 | 39841 ft | 475 kts | 278° |
| 2026-05-01 09:28 | -3.54385 | 115.73007 | 39837 ft | 475 kts | 278° |
| 2026-05-01 09:29 | -3.52964 | 115.63237 | 39842 ft | 475 kts | 278° |
| 2026-05-01 09:30 | -3.51692 | 115.54491 | 39842 ft | 475 kts | 278° |
| 2026-05-01 09:30 | -3.50267 | 115.44709 | 39844 ft | 475 kts | 278° |
| 2026-05-01 09:31 | -3.49315 | 115.38172 | 39839 ft | 475 kts | 278° |
| 2026-05-01 09:32 | -3.47884 | 115.28362 | 39837 ft | 474 kts | 278° |
| 2026-05-01 09:32 | -3.46455 | 115.18566 | 39835 ft | 474 kts | 278° |
| 2026-05-01 09:33 | -3.45501 | 115.12031 | 39829 ft | 474 kts | 278° |
| 2026-05-01 09:34 | -3.44070 | 115.02235 | 39832 ft | 475 kts | 278° |
| 2026-05-01 09:34 | -3.42631 | 114.92393 | 39830 ft | 477 kts | 279° |
| 2026-05-01 09:35 | -3.41189 | 114.82536 | 39833 ft | 477 kts | 279° |
| 2026-05-01 09:36 | -3.40234 | 114.76007 | 39825 ft | 477 kts | 279° |
| 2026-05-01 09:36 | -3.39271 | 114.69437 | 39831 ft | 477 kts | 279° |
| 2026-05-01 09:37 | -3.38310 | 114.62875 | 39832 ft | 477 kts | 279° |
| 2026-05-01 09:37 | -3.36865 | 114.53023 | 39829 ft | 477 kts | 279° |
| 2026-05-01 09:38 | -3.35419 | 114.43163 | 39825 ft | 477 kts | 279° |
| 2026-05-01 09:39 | -3.33973 | 114.33317 | 39829 ft | 477 kts | 279° |
| 2026-05-01 09:39 | -3.33007 | 114.26738 | 39831 ft | 477 kts | 279° |
| 2026-05-01 09:40 | -3.31559 | 114.16892 | 39826 ft | 477 kts | 279° |
| 2026-05-01 09:41 | -3.30592 | 114.10319 | 39834 ft | 477 kts | 279° |
| 2026-05-01 09:41 | -3.29143 | 114.00474 | 39826 ft | 476 kts | 278° |
| 2026-05-01 09:42 | -3.28184 | 113.93958 | 39833 ft | 476 kts | 278° |
| 2026-05-01 09:43 | -3.26254 | 113.80862 | 39831 ft | 476 kts | 278° |
| 2026-05-01 09:43 | -3.25289 | 113.74316 | 39831 ft | 476 kts | 279° |
| 2026-05-01 09:44 | -3.23833 | 113.64453 | 39835 ft | 479 kts | 279° |
| 2026-05-01 09:45 | -3.22860 | 113.57861 | 39838 ft | 479 kts | 279° |
| 2026-05-01 09:45 | -3.21401 | 113.47980 | 39835 ft | 479 kts | 279° |
| 2026-05-01 09:46 | -3.20426 | 113.41385 | 39838 ft | 479 kts | 279° |
| 2026-05-01 09:46 | -3.19447 | 113.34767 | 39836 ft | 481 kts | 279° |
| 2026-05-01 09:47 | -3.18466 | 113.28133 | 39834 ft | 482 kts | 279° |
| 2026-05-01 09:47 | -3.17484 | 113.21499 | 39831 ft | 482 kts | 279° |
| 2026-05-01 09:48 | -3.16502 | 113.14865 | 39834 ft | 482 kts | 279° |
| 2026-05-01 09:48 | -3.15519 | 113.08230 | 39840 ft | 482 kts | 279° |
| 2026-05-01 09:49 | -3.14544 | 113.01647 | 39831 ft | 480 kts | 279° |
| 2026-05-01 09:49 | -3.13565 | 112.95045 | 39829 ft | 479 kts | 279° |
| 2026-05-01 09:50 | -3.12587 | 112.88454 | 39830 ft | 479 kts | 279° |
| 2026-05-01 09:50 | -3.11607 | 112.81849 | 39836 ft | 480 kts | 279° |
| 2026-05-01 09:51 | -3.10627 | 112.75245 | 39836 ft | 479 kts | 279° |
| 2026-05-01 09:51 | -3.09646 | 112.68646 | 39834 ft | 479 kts | 279° |
| 2026-05-01 09:52 | -3.08667 | 112.62052 | 39830 ft | 479 kts | 279° |
| 2026-05-01 09:52 | -3.07684 | 112.55444 | 39830 ft | 479 kts | 279° |
| 2026-05-01 09:53 | -3.06704 | 112.48851 | 39829 ft | 479 kts | 279° |
| 2026-05-01 09:53 | -3.05726 | 112.42280 | 39833 ft | 480 kts | 279° |
| 2026-05-01 09:54 | -3.04740 | 112.35655 | 39828 ft | 481 kts | 279° |
| 2026-05-01 09:54 | -3.03034 | 112.29228 | 39832 ft | 478 kts | 296° |
| 2026-05-01 09:55 | -3.00161 | 112.23243 | 39830 ft | 477 kts | 299° |
| 2026-05-01 09:55 | -2.97081 | 112.17345 | 39825 ft | 477 kts | 300° |
| 2026-05-01 09:56 | -2.93992 | 112.11470 | 39825 ft | 477 kts | 299° |
| 2026-05-01 09:56 | -2.90932 | 112.05598 | 39826 ft | 480 kts | 299° |
| 2026-05-01 09:57 | -2.87856 | 111.99667 | 39827 ft | 480 kts | 298° |
| 2026-05-01 09:57 | -2.84782 | 111.93730 | 39828 ft | 480 kts | 298° |
| 2026-05-01 09:58 | -2.81709 | 111.87801 | 39824 ft | 480 kts | 298° |
| 2026-05-01 09:58 | -2.78639 | 111.81880 | 39823 ft | 479 kts | 298° |
| 2026-05-01 09:59 | -2.75567 | 111.75955 | 39823 ft | 480 kts | 298° |
| 2026-05-01 09:59 | -2.72473 | 111.70010 | 39822 ft | 482 kts | 300° |
| 2026-05-01 10:00 | -2.68947 | 111.64320 | 39824 ft | 481 kts | 304° |
| 2026-05-01 10:00 | -2.65309 | 111.58748 | 39821 ft | 481 kts | 304° |
| 2026-05-01 10:01 | -2.61628 | 111.53154 | 39840 ft | 481 kts | 304° |
| 2026-05-01 10:01 | -2.57957 | 111.47562 | 39822 ft | 481 kts | 304° |
| 2026-05-01 10:02 | -2.54289 | 111.41964 | 39835 ft | 481 kts | 304° |
| 2026-05-01 10:02 | -2.50627 | 111.36371 | 39820 ft | 481 kts | 304° |
| 2026-05-01 10:03 | -2.46960 | 111.30772 | 39819 ft | 481 kts | 304° |
| 2026-05-01 10:03 | -2.43295 | 111.25176 | 39818 ft | 481 kts | 304° |
| 2026-05-01 10:04 | -2.39621 | 111.19567 | 39816 ft | 481 kts | 304° |
| 2026-05-01 10:04 | -2.35972 | 111.13998 | 39814 ft | 481 kts | 304° |
| 2026-05-01 10:05 | -2.32301 | 111.08396 | 39819 ft | 481 kts | 304° |
| 2026-05-01 10:05 | -2.28633 | 111.02799 | 39822 ft | 481 kts | 304° |
| 2026-05-01 10:06 | -2.24962 | 110.97198 | 39823 ft | 481 kts | 304° |
| 2026-05-01 10:06 | -2.21286 | 110.91610 | 39826 ft | 481 kts | 304° |
| 2026-05-01 10:07 | -2.17601 | 110.86018 | 39822 ft | 481 kts | 304° |
| 2026-05-01 10:07 | -2.13919 | 110.80430 | 39834 ft | 481 kts | 304° |
| 2026-05-01 10:08 | -2.08398 | 110.72051 | 39835 ft | 481 kts | 304° |
| 2026-05-01 10:09 | -2.04710 | 110.66455 | 39838 ft | 481 kts | 304° |
| 2026-05-01 10:09 | -2.01031 | 110.60873 | 39820 ft | 481 kts | 304° |
| 2026-05-01 10:10 | -1.97321 | 110.55245 | 39820 ft | 481 kts | 304° |
| 2026-05-01 10:10 | -1.91793 | 110.46860 | 39821 ft | 481 kts | 304° |
| 2026-05-01 10:11 | -1.88131 | 110.41306 | 39818 ft | 480 kts | 304° |
| 2026-05-01 10:11 | -1.84452 | 110.35728 | 39820 ft | 480 kts | 304° |
| 2026-05-01 10:12 | -1.81394 | 110.31090 | 39820 ft | 480 kts | 304° |
| 2026-05-01 10:13 | -1.75882 | 110.22733 | 39818 ft | 480 kts | 304° |
| 2026-05-01 10:13 | -1.72210 | 110.17166 | 39817 ft | 479 kts | 304° |
| 2026-05-01 10:14 | -1.66707 | 110.08831 | 39833 ft | 479 kts | 304° |
| 2026-05-01 10:14 | -1.63046 | 110.03280 | 39819 ft | 478 kts | 304° |
| 2026-05-01 10:15 | -1.59387 | 109.97725 | 39820 ft | 478 kts | 304° |
| 2026-05-01 10:15 | -1.55722 | 109.92166 | 39838 ft | 478 kts | 304° |
| 2026-05-01 10:16 | -1.52076 | 109.86638 | 39833 ft | 478 kts | 304° |
| 2026-05-01 10:17 | -1.46606 | 109.78345 | 39836 ft | 478 kts | 305° |
| 2026-05-01 10:17 | -1.41126 | 109.70039 | 39841 ft | 477 kts | 305° |
| 2026-05-01 10:18 | -1.35652 | 109.61743 | 39843 ft | 477 kts | 305° |
| 2026-05-01 10:19 | -1.31995 | 109.56200 | 39845 ft | 477 kts | 305° |
| 2026-05-01 10:19 | -1.28343 | 109.50667 | 39828 ft | 477 kts | 305° |
| 2026-05-01 10:20 | -1.22869 | 109.42371 | 39829 ft | 477 kts | 304° |
| 2026-05-01 10:20 | -1.19215 | 109.36834 | 39849 ft | 477 kts | 304° |
| 2026-05-01 10:21 | -1.13739 | 109.28539 | 39850 ft | 477 kts | 304° |
| 2026-05-01 10:22 | -1.08260 | 109.20238 | 39835 ft | 477 kts | 304° |
| 2026-05-01 10:23 | -1.02786 | 109.11947 | 39837 ft | 476 kts | 304° |
| 2026-05-01 10:23 | -0.97325 | 109.03665 | 39838 ft | 475 kts | 304° |
| 2026-05-01 10:24 | -0.90107 | 108.92661 | 39841 ft | 475 kts | 304° |
| 2026-05-01 10:25 | -0.82867 | 108.81630 | 39843 ft | 475 kts | 304° |
| 2026-05-01 10:26 | -0.79249 | 108.76091 | 39844 ft | 474 kts | 303° |
| 2026-05-01 10:27 | -0.72060 | 108.65099 | 39844 ft | 472 kts | 304° |
| 2026-05-01 10:28 | -0.66648 | 108.56831 | 39845 ft | 475 kts | 304° |
| 2026-05-01 10:28 | -0.61210 | 108.48537 | 39847 ft | 475 kts | 304° |
| 2026-05-01 10:29 | -0.55754 | 108.40265 | 39856 ft | 474 kts | 304° |
| 2026-05-01 10:30 | -0.48535 | 108.29316 | 39841 ft | 473 kts | 304° |
| 2026-05-01 10:31 | -0.41286 | 108.18320 | 39856 ft | 473 kts | 304° |
| 2026-05-01 10:32 | -0.35860 | 108.10088 | 39857 ft | 473 kts | 304° |
| 2026-05-01 10:33 | -0.28619 | 107.99105 | 39844 ft | 473 kts | 304° |
| 2026-05-01 10:34 | -0.23225 | 107.90925 | 39843 ft | 473 kts | 304° |
| 2026-05-01 10:34 | -0.19604 | 107.85434 | 39858 ft | 473 kts | 304° |
| 2026-05-01 10:35 | -0.14176 | 107.77204 | 39857 ft | 473 kts | 304° |
| 2026-05-01 10:35 | -0.10556 | 107.71716 | 39859 ft | 472 kts | 304° |
| 2026-05-01 10:36 | -0.05114 | 107.63535 | 39858 ft | 471 kts | 304° |
| 2026-05-01 10:37 | -0.01481 | 107.58078 | 39840 ft | 471 kts | 304° |
| 2026-05-01 10:37 | 0.03947 | 107.49920 | 39846 ft | 469 kts | 304° |
| 2026-05-01 10:38 | 0.07563 | 107.44483 | 39842 ft | 469 kts | 304° |
| 2026-05-01 10:38 | 0.11173 | 107.39057 | 39859 ft | 469 kts | 304° |
| 2026-05-01 10:39 | 0.14756 | 107.33672 | 39847 ft | 468 kts | 304° |
| 2026-05-01 10:39 | 0.18355 | 107.28261 | 39846 ft | 467 kts | 304° |
| 2026-05-01 10:40 | 0.21955 | 107.22850 | 39858 ft | 467 kts | 304° |
| 2026-05-01 10:40 | 0.25555 | 107.17439 | 39845 ft | 467 kts | 304° |
| 2026-05-01 10:41 | 0.29157 | 107.12024 | 39847 ft | 467 kts | 304° |
| 2026-05-01 10:42 | 0.34550 | 107.03917 | 39848 ft | 467 kts | 304° |
| 2026-05-01 10:42 | 0.38163 | 106.98487 | 39851 ft | 470 kts | 304° |
| 2026-05-01 10:43 | 0.41383 | 106.92812 | 39851 ft | 471 kts | 292° |
| 2026-05-01 10:43 | 0.43134 | 106.86494 | 39850 ft | 472 kts | 283° |
| 2026-05-01 10:44 | 0.44447 | 106.80066 | 39847 ft | 473 kts | 282° |
| 2026-05-01 10:44 | 0.45701 | 106.73603 | 39863 ft | 473 kts | 282° |
| 2026-05-01 10:45 | 0.46975 | 106.67152 | 39847 ft | 473 kts | 282° |
| 2026-05-01 10:45 | 0.48263 | 106.60727 | 39862 ft | 472 kts | 282° |
| 2026-05-01 10:46 | 0.49561 | 106.54287 | 39853 ft | 472 kts | 282° |
| 2026-05-01 10:46 | 0.50848 | 106.47899 | 39863 ft | 472 kts | 282° |
| 2026-05-01 10:47 | 0.52143 | 106.41470 | 39850 ft | 472 kts | 282° |
| 2026-05-01 10:47 | 0.53436 | 106.35041 | 39853 ft | 472 kts | 282° |
| 2026-05-01 10:48 | 0.54734 | 106.28594 | 39868 ft | 475 kts | 282° |
| 2026-05-01 10:48 | 0.56039 | 106.22109 | 39855 ft | 476 kts | 282° |
| 2026-05-01 10:49 | 0.57343 | 106.15626 | 39860 ft | 476 kts | 282° |
| 2026-05-01 10:49 | 0.58648 | 106.09141 | 39857 ft | 476 kts | 282° |
| 2026-05-01 10:50 | 0.59946 | 106.02693 | 39871 ft | 476 kts | 282° |
| 2026-05-01 10:50 | 0.61250 | 105.96216 | 39857 ft | 477 kts | 282° |
| 2026-05-01 10:51 | 0.62564 | 105.89688 | 39863 ft | 480 kts | 282° |
| 2026-05-01 10:51 | 0.63883 | 105.83130 | 39858 ft | 481 kts | 282° |
| 2026-05-01 10:52 | 0.65201 | 105.76576 | 39860 ft | 481 kts | 282° |
| 2026-05-01 10:52 | 0.66518 | 105.70029 | 39864 ft | 481 kts | 282° |
| 2026-05-01 10:53 | 0.67835 | 105.63477 | 39861 ft | 481 kts | 282° |
| 2026-05-01 10:53 | 0.69155 | 105.56908 | 39861 ft | 483 kts | 282° |
| 2026-05-01 10:54 | 0.70480 | 105.50323 | 39863 ft | 484 kts | 282° |
| 2026-05-01 10:54 | 0.71586 | 105.44839 | 39864 ft | 484 kts | 282° |
| 2026-05-01 10:55 | 0.73125 | 105.37179 | 39862 ft | 484 kts | 282° |
| 2026-05-01 10:55 | 0.74233 | 105.31661 | 39860 ft | 483 kts | 282° |
| 2026-05-01 10:56 | 0.75556 | 105.25082 | 39861 ft | 481 kts | 282° |
| 2026-05-01 10:56 | 0.76872 | 105.18540 | 39859 ft | 479 kts | 282° |
| 2026-05-01 10:57 | 0.78185 | 105.12013 | 39862 ft | 479 kts | 282° |
| 2026-05-01 10:57 | 0.79500 | 105.05473 | 39861 ft | 479 kts | 282° |
| 2026-05-01 10:58 | 0.80806 | 104.98976 | 39862 ft | 479 kts | 282° |
| 2026-05-01 10:58 | 0.82118 | 104.92452 | 39865 ft | 479 kts | 282° |
| 2026-05-01 10:59 | 0.83428 | 104.85936 | 39862 ft | 477 kts | 282° |
| 2026-05-01 10:59 | 0.84732 | 104.79450 | 39863 ft | 476 kts | 282° |
| 2026-05-01 11:00 | 0.86034 | 104.72971 | 39857 ft | 476 kts | 282° |
| 2026-05-01 11:00 | 0.87339 | 104.66482 | 39861 ft | 476 kts | 282° |
| 2026-05-01 11:01 | 0.88643 | 104.59991 | 39859 ft | 476 kts | 282° |
| 2026-05-01 11:01 | 0.90393 | 104.53641 | 39855 ft | 474 kts | 294° |
| 2026-05-01 11:02 | 0.93893 | 104.48157 | 39857 ft | 471 kts | 314° |
| 2026-05-01 11:02 | 0.98486 | 104.43495 | 39857 ft | 471 kts | 317° |
| 2026-05-01 11:03 | 1.03252 | 104.38976 | 39858 ft | 471 kts | 317° |
| 2026-05-01 11:03 | 1.08013 | 104.34464 | 39856 ft | 472 kts | 317° |
| 2026-05-01 11:04 | 1.12753 | 104.29927 | 39854 ft | 471 kts | 317° |
| 2026-05-01 11:04 | 1.17471 | 104.25389 | 39858 ft | 470 kts | 317° |
| 2026-05-01 11:05 | 1.22182 | 104.20853 | 39858 ft | 470 kts | 317° |
| 2026-05-01 11:05 | 1.26866 | 104.16346 | 39855 ft | 470 kts | 317° |
| 2026-05-01 11:06 | 1.31581 | 104.11822 | 39855 ft | 469 kts | 317° |
| 2026-05-01 11:06 | 1.36288 | 104.07292 | 39853 ft | 469 kts | 317° |
| 2026-05-01 11:07 | 1.42943 | 104.00116 | 39855 ft | 470 kts | 307° |
| 2026-05-01 11:07 | 1.46730 | 103.94779 | 39855 ft | 471 kts | 305° |
| 2026-05-01 11:08 | 1.50432 | 103.89368 | 39856 ft | 472 kts | 305° |
| 2026-05-01 11:09 | 1.56000 | 103.81226 | 39853 ft | 474 kts | 305° |
| 2026-05-01 11:09 | 1.59733 | 103.75792 | 39857 ft | 474 kts | 305° |
| 2026-05-01 11:10 | 1.65337 | 103.67634 | 39855 ft | 474 kts | 304° |
| 2026-05-01 11:10 | 1.68500 | 103.61845 | 39856 ft | 475 kts | 297° |
| 2026-05-01 11:11 | 1.71430 | 103.55931 | 39835 ft | 475 kts | 296° |
| 2026-05-01 11:11 | 1.74326 | 103.49984 | 39841 ft | 475 kts | 296° |
| 2026-05-01 11:12 | 1.77207 | 103.44084 | 39848 ft | 475 kts | 297° |
| 2026-05-01 11:12 | 1.80110 | 103.38161 | 39861 ft | 475 kts | 297° |
| 2026-05-01 11:13 | 1.83021 | 103.32228 | 39862 ft | 475 kts | 297° |
| 2026-05-01 11:13 | 1.85936 | 103.26294 | 39863 ft | 475 kts | 297° |
| 2026-05-01 11:14 | 1.88843 | 103.20369 | 39865 ft | 474 kts | 296° |
| 2026-05-01 11:14 | 1.91742 | 103.14451 | 39861 ft | 474 kts | 296° |
| 2026-05-01 11:15 | 1.94623 | 103.08571 | 39866 ft | 474 kts | 296° |
| 2026-05-01 11:15 | 1.97523 | 103.02657 | 39868 ft | 474 kts | 296° |
| 2026-05-01 11:16 | 2.00441 | 102.96704 | 39868 ft | 474 kts | 296° |
| 2026-05-01 11:16 | 2.03320 | 102.90830 | 39868 ft | 474 kts | 296° |
| 2026-05-01 11:17 | 2.06223 | 102.84913 | 39867 ft | 474 kts | 296° |
| 2026-05-01 11:17 | 2.09109 | 102.78990 | 39866 ft | 474 kts | 296° |
| 2026-05-01 11:18 | 2.11787 | 102.72969 | 39867 ft | 475 kts | 294° |
| 2026-05-01 11:18 | 2.13102 | 102.69934 | 39618 ft | 473 kts | 294° |
| 2026-05-01 11:18 | 2.14419 | 102.66913 | 39004 ft | 476 kts | 294° |
| 2026-05-01 11:19 | 2.15751 | 102.63873 | 38338 ft | 479 kts | 295° |
| 2026-05-01 11:19 | 2.17094 | 102.60816 | 37593 ft | 482 kts | 295° |
| 2026-05-01 11:19 | 2.18449 | 102.57734 | 36861 ft | 484 kts | 295° |
| 2026-05-01 11:19 | 2.19809 | 102.54643 | 36135 ft | 487 kts | 295° |
| 2026-05-01 11:20 | 2.21178 | 102.51533 | 35426 ft | 489 kts | 295° |
| 2026-05-01 11:20 | 2.22556 | 102.48404 | 34715 ft | 492 kts | 295° |
| 2026-05-01 11:20 | 2.23917 | 102.45313 | 34004 ft | 492 kts | 294° |
| 2026-05-01 11:20 | 2.25285 | 102.42204 | 32863 ft | 484 kts | 295° |
| 2026-05-01 11:21 | 2.26636 | 102.39134 | 31311 ft | 483 kts | 295° |
| 2026-05-01 11:21 | 2.27994 | 102.36050 | 29726 ft | 484 kts | 295° |
| 2026-05-01 11:21 | 2.29349 | 102.32972 | 28013 ft | 482 kts | 295° |
| 2026-05-01 11:21 | 2.30693 | 102.29918 | 26432 ft | 479 kts | 295° |
| 2026-05-01 11:22 | 2.32020 | 102.26902 | 25480 ft | 463 kts | 295° |
| 2026-05-01 11:22 | 2.33283 | 102.24027 | 24964 ft | 439 kts | 295° |
| 2026-05-01 11:22 | 2.34482 | 102.21300 | 24514 ft | 417 kts | 295° |
| 2026-05-01 11:22 | 2.35625 | 102.18701 | 24023 ft | 400 kts | 295° |
| 2026-05-01 11:23 | 2.36729 | 102.16192 | 23393 ft | 390 kts | 295° |
| 2026-05-01 11:23 | 2.37812 | 102.13731 | 22606 ft | 384 kts | 295° |
| 2026-05-01 11:23 | 2.38880 | 102.11306 | 21815 ft | 378 kts | 295° |
| 2026-05-01 11:23 | 2.39930 | 102.08920 | 21048 ft | 372 kts | 295° |
| 2026-05-01 11:24 | 2.40967 | 102.06565 | 20308 ft | 367 kts | 295° |
| 2026-05-01 11:24 | 2.41989 | 102.04242 | 19560 ft | 363 kts | 295° |
| 2026-05-01 11:24 | 2.43993 | 101.99684 | 18263 ft | 352 kts | 295° |
| 2026-05-01 11:25 | 2.44957 | 101.97492 | 17926 ft | 336 kts | 295° |
| 2026-05-01 11:25 | 2.46753 | 101.93403 | 17385 ft | 307 kts | 295° |
| 2026-05-01 11:25 | 2.47599 | 101.91479 | 17047 ft | 298 kts | 295° |
| 2026-05-01 11:26 | 2.48668 | 101.89769 | 16521 ft | 289 kts | 320° |
| 2026-05-01 11:26 | 2.51888 | 101.87517 | 15649 ft | 279 kts | 330° |
| 2026-05-01 11:26 | 2.53510 | 101.86461 | 15201 ft | 277 kts | 329° |
| 2026-05-01 11:27 | 2.55111 | 101.85408 | 14790 ft | 275 kts | 329° |
| 2026-05-01 11:27 | 2.56700 | 101.84361 | 14374 ft | 272 kts | 329° |
| 2026-05-01 11:27 | 2.58255 | 101.83327 | 13981 ft | 271 kts | 329° |
| 2026-05-01 11:27 | 2.59814 | 101.82284 | 13584 ft | 269 kts | 328° |
| 2026-05-01 11:28 | 2.61366 | 101.81245 | 13162 ft | 267 kts | 328° |
| 2026-05-01 11:28 | 2.62905 | 101.80213 | 12750 ft | 265 kts | 328° |
| 2026-05-01 11:28 | 2.64430 | 101.79191 | 12343 ft | 264 kts | 328° |
| 2026-05-01 11:29 | 2.67459 | 101.77162 | 11554 ft | 260 kts | 328° |
| 2026-05-01 11:29 | 2.68959 | 101.76157 | 11158 ft | 259 kts | 328° |
| 2026-05-01 11:29 | 2.71934 | 101.74164 | 10400 ft | 256 kts | 328° |
| 2026-05-01 11:30 | 2.73411 | 101.73174 | 10004 ft | 255 kts | 328° |
| 2026-05-01 11:30 | 2.74876 | 101.72192 | 9586 ft | 253 kts | 328° |
| 2026-05-01 11:30 | 2.76337 | 101.71221 | 9156 ft | 251 kts | 328° |
| 2026-05-01 11:30 | 2.77782 | 101.70254 | 8741 ft | 249 kts | 328° |
| 2026-05-01 11:31 | 2.79221 | 101.69307 | 8351 ft | 247 kts | 331° |
| 2026-05-01 11:31 | 2.80792 | 101.68806 | 7899 ft | 238 kts | 5° |
| 2026-05-01 11:31 | 2.82289 | 101.69353 | 7583 ft | 230 kts | 42° |
| 2026-05-01 11:31 | 2.83080 | 101.70696 | 7297 ft | 228 kts | 81° |
| 2026-05-01 11:32 | 2.83162 | 101.72271 | 7068 ft | 227 kts | 89° |
| 2026-05-01 11:32 | 2.83230 | 101.73809 | 6865 ft | 227 kts | 85° |
| 2026-05-01 11:32 | 2.83402 | 101.75369 | 6677 ft | 226 kts | 84° |
| 2026-05-01 11:32 | 2.83263 | 101.76922 | 6501 ft | 227 kts | 110° |
| 2026-05-01 11:33 | 2.82338 | 101.78184 | 6336 ft | 228 kts | 142° |
| 2026-05-01 11:33 | 2.80871 | 101.78773 | 6136 ft | 232 kts | 173° |
| 2026-05-01 11:33 | 2.79276 | 101.78525 | 5936 ft | 236 kts | 203° |
| 2026-05-01 11:33 | 2.78008 | 101.77506 | 5767 ft | 237 kts | 234° |
| 2026-05-01 11:34 | 2.77401 | 101.75999 | 5619 ft | 234 kts | 260° |
| 2026-05-01 11:34 | 2.76680 | 101.74576 | 4960 ft | 250 kts | 219° |
| 2026-05-01 11:34 | 2.74971 | 101.73938 | 4053 ft | 277 kts | 180° |
| 2026-05-01 11:34 | 2.73137 | 101.73892 | 4466 ft | 236 kts | 180° |
| 2026-05-01 11:35 | 2.71579 | 101.73801 | 4570 ft | 228 kts | 182° |
| 2026-05-01 11:35 | 2.69867 | 101.73893 | 3157 ft | 267 kts | 158° |
| 2026-05-01 11:35 | 2.69001 | 101.75377 | 1288 ft | 297 kts | 46° |
| 2026-05-01 11:35 | 2.70779 | 101.74972 | 639 ft | 291 kts | 320° |
| 2026-05-01 11:36 | 2.72139 | 101.73781 | 976 ft | 253 kts | 322° |
| 2026-05-01 11:36 | 2.73717 | 101.72955 | 458 ft | 258 kts | 335° |
| 2026-05-01 11:36 | 2.75182 | 101.71979 | 87 ft | 248 kts | 326° |
| 2026-05-01 11:36 | 2.76230 | 101.71151 | 59 ft | 125 kts | 303° |
| 2026-05-01 11:37 | 2.76416 | 101.70869 | 54 ft | 0 kts | 298° |